Time;durP1;ratioP1;P1;durP2;ratioP2;P2;SDS_P1;SDS_P2;PMS_P1;PMS_P2;Temp;Humidity;BMP_temperature;BMP_pressure;BME280_temperature;BME280_humidity;BME280_pressure;Samples;Min_cycle;Max_cycle;Signal;HPM_P1;HPM_P2
2024/01/10 00:02:00;;;;;;;3.67;1.88;;;-3.70;99.90;;;;;;4989327;28;20076;-71
2024/01/10 00:04:25;;;;;;;5.90;2.90;;;-3.70;99.90;;;;;;4994576;28;20466;-71
2024/01/10 00:06:51;;;;;;;3.58;2.78;;;-3.70;99.90;;;;;;5001962;28;20650;-71
2024/01/10 00:09:17;;;;;;;1.73;1.20;;;-3.70;99.90;;;;;;4994100;28;20080;-71
2024/01/10 00:11:43;;;;;;;2.95;1.85;;;-3.70;99.90;;;;;;4992201;28;20400;-71
2024/01/10 00:14:09;;;;;;;1.63;1.52;;;-3.70;99.90;;;;;;4995841;28;20033;-71
2024/01/10 00:16:35;;;;;;;2.40;0.95;;;-3.80;99.90;;;;;;4990061;28;20486;-71
2024/01/10 00:19:00;;;;;;;1.40;0.95;;;-3.80;99.90;;;;;;4974775;28;20046;-71
2024/01/10 00:21:26;;;;;;;4.70;2.78;;;-3.80;99.90;;;;;;4992337;28;20088;-71
2024/01/10 00:23:52;;;;;;;3.90;2.72;;;-3.80;99.90;;;;;;4992394;28;20073;-71
2024/01/10 00:26:18;;;;;;;2.28;1.65;;;-3.80;99.90;;;;;;4990305;28;20073;-71
2024/01/10 00:28:45;;;;;;;1.40;1.30;;;-3.80;99.90;;;;;;4992376;28;20040;-71
2024/01/10 00:31:12;;;;;;;2.65;2.13;;;-3.80;99.90;;;;;;5010101;28;20128;-71
2024/01/10 00:33:38;;;;;;;2.85;2.28;;;-3.80;99.90;;;;;;4992920;28;20049;-71
2024/01/10 00:36:04;;;;;;;2.00;0.80;;;-3.90;99.90;;;;;;4994494;28;20401;-71
2024/01/10 00:38:30;;;;;;;1.08;1.05;;;-3.80;99.90;;;;;;4991158;28;20034;-71
2024/01/10 00:40:56;;;;;;;1.42;1.30;;;-3.90;99.90;;;;;;4992240;28;20086;-71
2024/01/10 00:43:22;;;;;;;2.55;2.28;;;-3.90;99.90;;;;;;4989006;28;20034;-71
2024/01/10 00:45:47;;;;;;;1.58;1.48;;;-3.90;99.90;;;;;;4978226;28;20100;-71
2024/01/10 00:48:13;;;;;;;1.27;0.95;;;-3.90;99.90;;;;;;4974271;28;20053;-71
2024/01/10 00:50:39;;;;;;;3.67;2.88;;;-3.90;99.90;;;;;;4992240;28;20199;-71
2024/01/10 00:53:05;;;;;;;1.58;0.77;;;-3.90;99.90;;;;;;4989753;28;20064;-71
2024/01/10 00:55:31;;;;;;;3.67;2.38;;;-3.90;99.90;;;;;;4990210;28;20054;-71
2024/01/10 00:57:56;;;;;;;1.52;1.42;;;-3.90;99.90;;;;;;4987977;28;20129;-72
2024/01/10 01:00:22;;;;;;;2.58;2.38;;;-3.90;99.90;;;;;;4990973;28;20468;-72
2024/01/10 01:02:48;;;;;;;1.70;1.60;;;-4.00;99.90;;;;;;4990253;28;20561;-72
2024/01/10 01:05:13;;;;;;;2.30;2.10;;;-3.90;99.90;;;;;;4990000;28;20045;-72
2024/01/10 01:07:39;;;;;;;0.95;0.77;;;-4.00;99.90;;;;;;4981499;28;20049;-72
2024/01/10 01:10:08;;;;;;;1.15;1.13;;;-4.00;99.90;;;;;;4990881;28;20124;-72
2024/01/10 01:12:34;;;;;;;4.13;1.55;;;-4.00;99.90;;;;;;4987800;28;20112;-72
2024/01/10 01:15:00;;;;;;;0.90;0.90;;;-4.00;99.90;;;;;;4990345;28;20073;-72
2024/01/10 01:17:26;;;;;;;4.88;1.40;;;-4.00;99.90;;;;;;4987135;28;20528;-72
2024/01/10 01:19:51;;;;;;;2.25;1.83;;;-4.00;99.90;;;;;;4990494;28;20500;-72
2024/01/10 01:22:17;;;;;;;4.05;1.08;;;-4.00;99.90;;;;;;4970661;28;20065;-72
2024/01/10 01:24:43;;;;;;;2.58;1.77;;;-4.10;99.90;;;;;;4990492;28;20080;-72
2024/01/10 01:27:09;;;;;;;4.18;2.63;;;-4.10;99.90;;;;;;4973728;28;20045;-72
2024/01/10 01:29:34;;;;;;;1.40;1.30;;;-4.00;99.90;;;;;;4996258;28;20441;-72
2024/01/10 01:32:00;;;;;;;3.38;2.60;;;-4.10;99.90;;;;;;4989242;28;20042;-72
2024/01/10 01:34:26;;;;;;;3.17;1.60;;;-4.10;99.90;;;;;;4974300;28;20048;-72
2024/01/10 01:36:51;;;;;;;1.38;0.98;;;-4.20;99.90;;;;;;4995465;28;20513;-72
2024/01/10 01:39:18;;;;;;;3.05;1.52;;;-4.20;99.90;;;;;;4998111;28;20042;-72
2024/01/10 01:41:44;;;;;;;1.75;1.48;;;-4.20;99.90;;;;;;4992874;28;20516;-72
2024/01/10 01:44:09;;;;;;;2.38;1.60;;;-4.20;99.90;;;;;;4994494;28;20099;-72
2024/01/10 01:46:35;;;;;;;1.20;1.10;;;-4.20;99.90;;;;;;4993363;28;20334;-72
2024/01/10 01:49:02;;;;;;;1.90;1.45;;;-4.20;99.90;;;;;;4985709;28;20049;-72
2024/01/10 01:51:30;;;;;;;2.63;1.58;;;-4.30;99.90;;;;;;4981886;28;20496;-72
2024/01/10 01:53:56;;;;;;;2.00;1.77;;;-4.30;99.90;;;;;;4994351;28;20050;-72
2024/01/10 01:56:23;;;;;;;2.10;1.23;;;-4.40;99.90;;;;;;4992884;28;20125;-72
2024/01/10 01:58:51;;;;;;;1.48;1.05;;;-4.40;99.90;;;;;;4993501;28;20133;-71
2024/01/10 02:01:21;;;;;;;3.83;2.00;;;-4.40;99.90;;;;;;4983385;28;20095;-72
2024/01/10 02:03:47;;;;;;;2.00;1.23;;;-4.40;99.90;;;;;;5005411;28;20038;-72
2024/01/10 02:06:13;;;;;;;4.47;1.63;;;-4.40;99.90;;;;;;4993078;28;20450;-72
2024/01/10 02:08:39;;;;;;;1.92;1.77;;;-4.50;99.90;;;;;;4993610;28;20128;-71
2024/01/10 02:11:05;;;;;;;2.60;1.67;;;-4.50;99.90;;;;;;4993334;28;20084;-71
2024/01/10 02:13:34;;;;;;;2.35;1.17;;;-4.50;99.90;;;;;;5010397;28;20044;-71
2024/01/10 02:16:00;;;;;;;0.80;0.70;;;-4.50;99.90;;;;;;4992393;28;20083;-72
2024/01/10 02:18:26;;;;;;;1.92;1.08;;;-4.50;99.90;;;;;;4997703;28;20505;-72
2024/01/10 02:20:52;;;;;;;2.10;1.48;;;-4.50;99.90;;;;;;4989782;28;20088;-72
2024/01/10 02:23:18;;;;;;;1.55;1.15;;;-4.50;99.90;;;;;;4992827;28;20038;-71
2024/01/10 02:25:44;;;;;;;2.80;1.70;;;-4.50;99.90;;;;;;5009744;28;20053;-71
2024/01/10 02:28:10;;;;;;;1.33;1.05;;;-4.60;99.90;;;;;;4990900;28;20405;-72
2024/01/10 02:30:36;;;;;;;4.72;1.65;;;-4.60;99.90;;;;;;4993217;28;20038;-72
2024/01/10 02:33:02;;;;;;;2.15;1.63;;;-4.60;99.90;;;;;;4993265;28;20057;-71
2024/01/10 02:35:27;;;;;;;4.22;2.28;;;-4.60;99.90;;;;;;4993016;28;20409;-71
2024/01/10 02:37:54;;;;;;;2.00;1.58;;;-4.60;99.90;;;;;;4992529;28;20084;-71
2024/01/10 02:40:20;;;;;;;1.08;1.00;;;-4.60;99.90;;;;;;4990227;28;20041;-72
2024/01/10 02:42:46;;;;;;;2.10;1.85;;;-4.60;99.90;;;;;;4992732;28;20101;-71
2024/01/10 02:45:12;;;;;;;2.78;0.85;;;-4.60;99.90;;;;;;4990333;28;20641;-72
2024/01/10 02:47:38;;;;;;;1.30;1.00;;;-4.60;99.90;;;;;;4992042;28;20046;-71
2024/01/10 02:50:05;;;;;;;3.05;1.65;;;-4.60;99.90;;;;;;5006396;28;20127;-71
2024/01/10 02:52:31;;;;;;;2.17;1.98;;;-4.50;99.90;;;;;;4991452;28;20460;-71
2024/01/10 02:54:57;;;;;;;1.80;1.40;;;-4.50;99.90;;;;;;4975753;28;20103;-71
2024/01/10 02:57:22;;;;;;;1.08;0.98;;;-4.50;99.90;;;;;;4992088;28;20041;-71
2024/01/10 02:59:49;;;;;;;1.15;0.95;;;-4.50;99.90;;;;;;4993654;28;20045;-71
2024/01/10 03:02:15;;;;;;;1.42;1.05;;;-4.50;99.90;;;;;;4989487;28;20563;-71
2024/01/10 03:04:42;;;;;;;2.22;1.60;;;-4.40;99.90;;;;;;4992224;28;20041;-71
2024/01/10 03:07:07;;;;;;;1.98;1.25;;;-4.40;99.90;;;;;;4991386;28;20096;-71
2024/01/10 03:09:33;;;;;;;1.42;1.00;;;-4.40;99.90;;;;;;4991539;28;20481;-71
2024/01/10 03:11:59;;;;;;;3.42;1.30;;;-4.40;99.90;;;;;;4992501;28;20038;-71
2024/01/10 03:14:24;;;;;;;1.00;0.93;;;-4.40;99.90;;;;;;4992466;28;20049;-71
2024/01/10 03:16:50;;;;;;;4.90;2.30;;;-4.40;99.90;;;;;;4976610;28;20038;-71
2024/01/10 03:19:16;;;;;;;0.85;0.85;;;-4.40;99.90;;;;;;4992665;28;20041;-71
2024/01/10 03:21:41;;;;;;;2.50;1.50;;;-4.40;99.90;;;;;;4987431;28;20704;-71
2024/01/10 03:24:07;;;;;;;0.77;0.77;;;-4.40;99.90;;;;;;4991657;28;20473;-71
2024/01/10 03:26:33;;;;;;;1.58;1.48;;;-4.50;99.90;;;;;;4990078;28;20038;-71
2024/01/10 03:29:00;;;;;;;1.40;1.25;;;-4.50;99.90;;;;;;4990237;28;20524;-72
2024/01/10 03:31:30;;;;;;;4.13;3.22;;;-4.40;99.90;;;;;;4988808;28;20073;-71
2024/01/10 03:33:56;;;;;;;3.92;2.17;;;-4.40;99.90;;;;;;4992572;28;20568;-71
2024/01/10 03:36:22;;;;;;;3.15;2.00;;;-4.40;99.90;;;;;;4992129;28;20410;-71
2024/01/10 03:38:48;;;;;;;4.00;2.55;;;-4.40;99.90;;;;;;4972002;28;20042;-71
2024/01/10 03:41:17;;;;;;;3.10;1.98;;;-4.40;99.90;;;;;;4990632;28;20053;-71
2024/01/10 03:43:43;;;;;;;1.50;0.82;;;-4.40;99.90;;;;;;4992208;28;20135;-71
2024/01/10 03:46:10;;;;;;;6.43;2.33;;;-4.40;99.90;;;;;;4990258;28;20583;-71
2024/01/10 03:48:36;;;;;;;3.60;1.65;;;-4.40;99.90;;;;;;4990890;28;20053;-71
2024/01/10 03:51:02;;;;;;;1.83;1.65;;;-4.40;99.90;;;;;;4991634;28;20517;-71
2024/01/10 03:53:29;;;;;;;1.33;1.10;;;-4.40;99.90;;;;;;4990133;28;20044;-71
2024/01/10 03:55:55;;;;;;;3.80;2.28;;;-4.40;99.90;;;;;;4991434;28;20099;-71
2024/01/10 03:58:20;;;;;;;1.33;1.23;;;-4.40;99.90;;;;;;4990574;28;20050;-71
2024/01/10 04:00:46;;;;;;;0.82;0.80;;;-4.40;99.90;;;;;;4991390;28;20088;-71
2024/01/10 04:03:12;;;;;;;1.65;1.30;;;-4.40;99.90;;;;;;4991101;28;20071;-71
2024/01/10 04:05:37;;;;;;;1.42;1.10;;;-4.40;99.90;;;;;;5009244;28;20042;-71
2024/01/10 04:08:03;;;;;;;1.42;1.23;;;-4.40;99.90;;;;;;4988981;28;20046;-71
2024/01/10 04:10:29;;;;;;;3.78;1.75;;;-4.40;99.90;;;;;;4975087;28;20115;-71
2024/01/10 04:12:55;;;;;;;6.72;2.95;;;-4.40;99.90;;;;;;4989614;28;20130;-71
2024/01/10 04:15:21;;;;;;;2.22;1.85;;;-4.40;99.90;;;;;;4991756;28;20038;-71
2024/01/10 04:17:47;;;;;;;2.67;1.00;;;-4.40;99.90;;;;;;4971258;28;20085;-71
2024/01/10 04:20:13;;;;;;;7.07;2.65;;;-4.40;99.90;;;;;;4989730;28;20038;-71
2024/01/10 04:22:38;;;;;;;1.85;1.67;;;-4.50;99.90;;;;;;5006371;28;20110;-71
2024/01/10 04:25:06;;;;;;;1.55;1.45;;;-4.50;99.90;;;;;;4991319;28;20069;-71
2024/01/10 04:27:32;;;;;;;2.50;2.30;;;-4.50;99.90;;;;;;4991720;28;20494;-71
2024/01/10 04:29:58;;;;;;;6.70;2.17;;;-4.40;99.90;;;;;;4989267;28;20077;-71
2024/01/10 04:32:23;;;;;;;3.10;2.33;;;-4.40;99.90;;;;;;4997386;28;20129;-71
2024/01/10 04:34:49;;;;;;;3.38;1.55;;;-4.50;99.90;;;;;;4991579;28;20172;-71
2024/01/10 04:37:16;;;;;;;3.53;1.55;;;-4.50;99.90;;;;;;4989056;28;20100;-71
2024/01/10 04:39:42;;;;;;;2.15;2.00;;;-4.50;99.90;;;;;;4990553;28;20042;-71
2024/01/10 04:42:10;;;;;;;2.97;2.10;;;-4.50;99.90;;;;;;4974547;28;20479;-71
2024/01/10 04:44:36;;;;;;;1.40;1.30;;;-4.50;99.90;;;;;;4991310;28;20478;-71
2024/01/10 04:47:03;;;;;;;4.07;2.88;;;-4.60;99.90;;;;;;4990647;28;20037;-71
2024/01/10 04:49:28;;;;;;;2.10;1.42;;;-4.50;99.90;;;;;;4987013;28;20069;-71
2024/01/10 04:51:54;;;;;;;4.50;2.17;;;-4.50;99.90;;;;;;4990113;28;20482;-71
2024/01/10 04:54:20;;;;;;;3.35;2.30;;;-4.50;99.90;;;;;;4991216;28;20081;-71
2024/01/10 04:56:46;;;;;;;2.28;2.13;;;-4.50;99.90;;;;;;5009332;28;20042;-71
2024/01/10 04:59:12;;;;;;;2.20;1.52;;;-4.50;99.90;;;;;;4990814;28;20050;-71
2024/01/10 05:01:38;;;;;;;3.58;2.60;;;-4.50;99.90;;;;;;4990881;28;20049;-71
2024/01/10 05:04:04;;;;;;;4.40;3.05;;;-4.50;99.90;;;;;;4972203;28;20048;-71
2024/01/10 05:06:30;;;;;;;2.78;1.65;;;-4.60;99.90;;;;;;4990700;28;20046;-71
2024/01/10 05:08:57;;;;;;;1.85;1.48;;;-4.60;99.90;;;;;;4991739;28;20053;-71
2024/01/10 05:11:24;;;;;;;3.67;2.47;;;-4.60;99.90;;;;;;4995780;28;20042;-71
2024/01/10 05:13:50;;;;;;;6.53;2.50;;;-4.60;99.90;;;;;;4994303;28;20092;-71
2024/01/10 05:16:17;;;;;;;3.95;2.10;;;-4.60;99.90;;;;;;4994345;28;20054;-71
2024/01/10 05:18:43;;;;;;;5.63;2.97;;;-4.70;99.90;;;;;;4994166;28;20038;-71
2024/01/10 05:21:08;;;;;;;3.13;2.85;;;-4.70;99.90;;;;;;4994211;28;20081;-71
2024/01/10 05:23:34;;;;;;;2.08;1.88;;;-4.70;99.90;;;;;;4992911;28;20484;-71
2024/01/10 05:26:00;;;;;;;2.50;1.90;;;-4.70;99.90;;;;;;4994813;28;20038;-71
2024/01/10 05:28:25;;;;;;;3.75;2.30;;;-4.70;99.90;;;;;;4993852;28;20042;-71
2024/01/10 05:30:51;;;;;;;3.05;2.42;;;-4.70;99.90;;;;;;4994248;28;20042;-71
2024/01/10 05:33:17;;;;;;;3.78;3.25;;;-4.70;99.90;;;;;;4993567;28;20073;-71
2024/01/10 05:35:42;;;;;;;3.33;1.27;;;-4.70;99.90;;;;;;4994730;28;20042;-71
2024/01/10 05:38:08;;;;;;;6.65;2.50;;;-4.70;99.90;;;;;;4991117;28;20038;-72
2024/01/10 05:40:34;;;;;;;1.95;1.75;;;-4.60;99.90;;;;;;4993498;28;20078;-71
2024/01/10 05:42:59;;;;;;;14.60;2.90;;;-4.70;99.90;;;;;;4993056;28;20057;-71
2024/01/10 05:45:26;;;;;;;4.57;4.10;;;-4.70;99.90;;;;;;4992625;28;20041;-71
2024/01/10 05:47:52;;;;;;;1.88;1.65;;;-4.60;99.90;;;;;;4990646;28;20049;-71
2024/01/10 05:50:18;;;;;;;2.42;1.67;;;-4.60;99.90;;;;;;4994063;28;20077;-71
2024/01/10 05:52:44;;;;;;;3.22;2.70;;;-4.60;99.90;;;;;;4992915;28;20128;-71
2024/01/10 05:55:10;;;;;;;1.50;1.40;;;-4.60;99.90;;;;;;4993707;28;20388;-71
2024/01/10 05:57:36;;;;;;;4.18;3.15;;;-4.60;99.90;;;;;;4994056;28;20409;-71
2024/01/10 06:00:03;;;;;;;2.40;2.08;;;-4.60;99.90;;;;;;4977303;28;20100;-71
2024/01/10 06:02:28;;;;;;;3.67;2.80;;;-4.60;99.90;;;;;;4993741;28;20042;-70
2024/01/10 06:04:54;;;;;;;2.08;1.95;;;-4.60;99.90;;;;;;4994108;28;20041;-70
2024/01/10 06:07:22;;;;;;;5.82;2.33;;;-4.60;99.90;;;;;;4992382;28;20081;-70
2024/01/10 06:09:48;;;;;;;1.90;1.77;;;-4.60;99.90;;;;;;4993322;28;20160;-70
2024/01/10 06:12:14;;;;;;;1.08;1.02;;;-4.60;99.90;;;;;;4993073;28;20038;-70
2024/01/10 06:14:40;;;;;;;2.65;2.45;;;-4.60;99.90;;;;;;4993326;28;20409;-70
2024/01/10 06:17:06;;;;;;;3.65;2.97;;;-4.60;99.90;;;;;;4991470;28;20409;-70
2024/01/10 06:19:32;;;;;;;3.90;3.10;;;-4.70;99.90;;;;;;4980413;28;20155;-70
2024/01/10 06:21:58;;;;;;;4.25;2.63;;;-4.60;99.90;;;;;;4991463;28;20041;-70
2024/01/10 06:24:24;;;;;;;3.13;2.83;;;-4.70;99.90;;;;;;4993487;28;20049;-70
2024/01/10 06:26:50;;;;;;;1.80;1.42;;;-4.60;99.90;;;;;;4992822;28;20157;-70
2024/01/10 06:29:16;;;;;;;1.50;1.38;;;-4.60;99.90;;;;;;4990689;28;20049;-70
2024/01/10 06:31:42;;;;;;;1.42;1.33;;;-4.60;99.90;;;;;;4992514;28;20075;-70
2024/01/10 06:34:08;;;;;;;3.05;2.83;;;-4.60;99.90;;;;;;4983321;28;20046;-70
2024/01/10 06:36:35;;;;;;;2.28;1.98;;;-4.70;99.90;;;;;;4990981;28;20041;-70
2024/01/10 06:39:01;;;;;;;4.22;1.88;;;-4.70;99.90;;;;;;4993502;28;20046;-70
2024/01/10 06:41:27;;;;;;;3.90;2.03;;;-4.60;99.90;;;;;;4991038;28;20053;-70
2024/01/10 06:43:53;;;;;;;14.55;5.18;;;-4.60;99.90;;;;;;5007286;28;20034;-70
2024/01/10 06:46:20;;;;;;;3.13;2.75;;;-4.60;99.90;;;;;;4987887;28;20497;-70
2024/01/10 06:48:46;;;;;;;4.40;3.10;;;-4.70;99.90;;;;;;4990342;28;20053;-70
2024/01/10 06:51:15;;;;;;;3.47;1.63;;;-4.60;99.90;;;;;;4991262;28;20594;-69
2024/01/10 06:53:41;;;;;;;4.10;2.22;;;-4.60;99.90;;;;;;4991478;28;20505;-70
2024/01/10 06:56:09;;;;;;;2.08;1.90;;;-4.70;99.90;;;;;;4991285;28;20045;-70
2024/01/10 06:58:35;;;;;;;1.67;1.50;;;-4.60;99.90;;;;;;4990934;28;20038;-70
2024/01/10 07:01:01;;;;;;;3.75;1.48;;;-4.70;99.90;;;;;;4990995;28;20034;-70
2024/01/10 07:03:27;;;;;;;2.92;1.35;;;-4.70;99.90;;;;;;4991296;28;20124;-71
2024/01/10 07:05:53;;;;;;;2.38;1.63;;;-4.70;99.90;;;;;;5002872;28;20045;-70
2024/01/10 07:08:18;;;;;;;2.47;1.67;;;-4.70;99.90;;;;;;4990105;28;20042;-70
2024/01/10 07:10:44;;;;;;;2.33;2.13;;;-4.70;99.90;;;;;;4976478;28;20061;-70
2024/01/10 07:13:10;;;;;;;2.67;2.25;;;-4.70;99.90;;;;;;4991513;28;20052;-70
2024/01/10 07:15:50;;;;;;;1.73;1.63;;;-4.70;99.90;;;;;;4987526;28;20141;-70
2024/01/10 07:18:17;;;;;;;3.63;1.85;;;-4.80;99.90;;;;;;4987522;28;20064;-70
2024/01/10 07:20:42;;;;;;;2.35;2.15;;;-4.70;99.90;;;;;;4988975;28;20432;-69
2024/01/10 07:23:08;;;;;;;2.30;1.65;;;-4.70;99.90;;;;;;4991416;28;20128;-70
2024/01/10 07:25:34;;;;;;;5.20;2.13;;;-4.70;99.90;;;;;;4991891;28;20069;-70
2024/01/10 07:27:59;;;;;;;4.75;2.53;;;-4.70;99.90;;;;;;5004957;28;20042;-70
2024/01/10 07:30:26;;;;;;;2.25;1.80;;;-4.70;99.90;;;;;;4991499;28;20038;-70
2024/01/10 07:32:51;;;;;;;2.42;1.60;;;-4.70;99.90;;;;;;4990675;28;20041;-70
2024/01/10 07:35:17;;;;;;;1.92;1.70;;;-4.70;99.90;;;;;;4989876;28;20048;-70
2024/01/10 07:37:43;;;;;;;2.88;1.98;;;-4.70;99.90;;;;;;4991271;28;20049;-70
2024/01/10 07:40:13;;;;;;;1.20;1.10;;;-4.70;99.90;;;;;;4990791;28;20152;-70
2024/01/10 07:42:39;;;;;;;1.52;1.42;;;-4.70;99.90;;;;;;5004845;28;20060;-71
2024/01/10 07:45:05;;;;;;;4.20;2.15;;;-4.70;99.90;;;;;;4989569;28;20466;-70
2024/01/10 07:47:34;;;;;;;3.15;2.72;;;-4.60;99.90;;;;;;4991396;28;20477;-70
2024/01/10 07:49:59;;;;;;;2.05;1.35;;;-4.70;99.90;;;;;;4986618;28;20124;-70
2024/01/10 07:52:26;;;;;;;2.15;1.40;;;-4.60;99.90;;;;;;4988528;28;20054;-70
2024/01/10 07:54:51;;;;;;;2.63;2.05;;;-4.60;99.90;;;;;;4987579;28;20059;-71
2024/01/10 07:57:19;;;;;;;2.38;1.42;;;-4.60;99.90;;;;;;4988765;28;20556;-71
2024/01/10 07:59:47;;;;;;;3.67;2.42;;;-4.60;99.90;;;;;;4987882;28;20046;-70
2024/01/10 08:02:13;;;;;;;4.57;2.38;;;-4.60;99.90;;;;;;4989525;28;20040;-70
2024/01/10 08:04:39;;;;;;;2.88;2.30;;;-4.60;99.90;;;;;;4990531;28;20034;-70
2024/01/10 08:07:04;;;;;;;3.75;2.47;;;-4.70;99.90;;;;;;5004840;28;20038;-70
2024/01/10 08:09:30;;;;;;;5.25;3.03;;;-4.60;99.90;;;;;;4985762;28;20117;-70
2024/01/10 08:11:56;;;;;;;2.25;1.80;;;-4.60;99.90;;;;;;4989078;28;20041;-70
2024/01/10 08:14:21;;;;;;;1.70;1.33;;;-4.60;99.90;;;;;;4988234;28;20052;-70
2024/01/10 08:16:47;;;;;;;2.08;1.15;;;-4.60;99.90;;;;;;4987153;28;20041;-70
2024/01/10 08:19:13;;;;;;;1.52;1.27;;;-4.60;99.90;;;;;;4990279;28;20045;-70
2024/01/10 08:21:39;;;;;;;2.10;1.90;;;-4.50;99.90;;;;;;4988522;28;20042;-70
2024/01/10 08:24:06;;;;;;;1.80;1.63;;;-4.50;99.90;;;;;;4989618;28;20042;-69
2024/01/10 08:26:31;;;;;;;2.80;2.35;;;-4.50;99.90;;;;;;4984609;28;20034;-70
2024/01/10 08:28:57;;;;;;;3.22;1.95;;;-4.40;99.90;;;;;;4987293;28;20636;-69
2024/01/10 08:31:23;;;;;;;2.25;1.70;;;-4.40;99.90;;;;;;4986083;28;20479;-70
2024/01/10 08:33:49;;;;;;;7.25;3.72;;;-4.40;99.90;;;;;;4985803;28;20046;-70
2024/01/10 08:36:15;;;;;;;1.48;1.38;;;-4.40;99.90;;;;;;4988759;28;20052;-70
2024/01/10 08:38:41;;;;;;;2.92;2.60;;;-4.30;99.90;;;;;;4986272;28;20041;-70
2024/01/10 08:41:08;;;;;;;3.35;2.08;;;-4.20;99.90;;;;;;4986304;28;20070;-70
2024/01/10 08:43:34;;;;;;;4.10;2.72;;;-4.20;99.90;;;;;;4952596;28;20494;-69
2024/01/10 08:46:00;;;;;;;4.97;2.80;;;-4.20;99.90;;;;;;4977638;28;20046;-70
2024/01/10 08:48:26;;;;;;;6.00;2.33;;;-4.10;99.90;;;;;;4971128;28;20486;-71
2024/01/10 08:50:54;;;;;;;3.22;1.70;;;-4.10;99.90;;;;;;4976926;28;20132;-70
2024/01/10 08:53:19;;;;;;;1.23;1.05;;;-4.00;99.90;;;;;;4969002;28;20078;-71
2024/01/10 08:55:47;;;;;;;7.00;3.20;;;-4.00;99.90;;;;;;4956840;28;20050;-71
2024/01/10 08:58:12;;;;;;;3.13;1.90;;;-3.90;99.90;;;;;;4973202;28;20050;-71
2024/01/10 09:00:38;;;;;;;6.63;2.70;;;-3.90;99.90;;;;;;4974789;28;20481;-70
2024/01/10 09:03:04;;;;;;;2.03;1.80;;;-3.80;99.90;;;;;;4976793;28;20134;-70
2024/01/10 09:05:30;;;;;;;1.95;1.67;;;-3.80;99.90;;;;;;4973119;28;20034;-71
2024/01/10 09:07:56;;;;;;;1.60;1.48;;;-3.80;99.90;;;;;;4971179;28;20049;-72
2024/01/10 09:10:22;;;;;;;4.05;2.85;;;-3.70;99.90;;;;;;4973749;28;20045;-70
2024/01/10 09:12:48;;;;;;;11.15;2.38;;;-3.70;99.90;;;;;;4970747;28;20366;-70
2024/01/10 09:15:14;;;;;;;4.95;1.67;;;-3.70;99.90;;;;;;4971132;28;20497;-70
2024/01/10 09:17:41;;;;;;;4.55;2.67;;;-3.60;99.90;;;;;;4975321;28;20040;-70
2024/01/10 09:20:08;;;;;;;3.60;2.55;;;-3.60;99.90;;;;;;4966711;28;20140;-70
2024/01/10 09:22:34;;;;;;;3.50;2.03;;;-3.60;99.90;;;;;;4986539;28;20486;-71
2024/01/10 09:25:05;;;;;;;3.70;1.48;;;-3.60;99.90;;;;;;4970436;28;20046;-70
2024/01/10 09:27:31;;;;;;;6.40;2.67;;;-3.50;99.90;;;;;;4973457;28;20046;-71
2024/01/10 09:29:57;;;;;;;1.90;1.23;;;-3.50;99.90;;;;;;4971253;28;20065;-70
2024/01/10 09:32:23;;;;;;;4.32;2.42;;;-3.40;99.90;;;;;;4990486;28;20409;-71
2024/01/10 09:34:48;;;;;;;0.65;0.65;;;-3.40;99.90;;;;;;4975604;28;20042;-70
2024/01/10 09:37:14;;;;;;;2.00;1.80;;;-3.40;99.90;;;;;;4977718;28;20052;-71
2024/01/10 09:39:40;;;;;;;6.97;3.50;;;-3.40;99.90;;;;;;4977227;28;20042;-70
2024/01/10 09:42:06;;;;;;;1.25;1.00;;;-3.30;99.90;;;;;;4987478;28;20110;-71
2024/01/10 09:44:33;;;;;;;4.68;3.13;;;-3.30;99.90;;;;;;4994330;28;20104;-70
2024/01/10 09:47:00;;;;;;;4.15;3.15;;;-3.30;99.90;;;;;;4992474;28;20045;-71
2024/01/10 09:49:26;;;;;;;2.75;2.05;;;-3.20;99.90;;;;;;4982424;28;20085;-70
2024/01/10 09:51:59;;;;;;;2.50;1.95;;;-3.20;99.90;;;;;;4994132;28;20081;-70
2024/01/10 09:54:26;;;;;;;4.07;2.25;;;-3.20;99.90;;;;;;4991228;28;20050;-71
2024/01/10 09:56:53;;;;;;;4.80;2.20;;;-3.20;99.90;;;;;;4992991;28;20069;-71
2024/01/10 09:59:18;;;;;;;2.00;1.45;;;-3.10;99.90;;;;;;4993357;28;20070;-71
2024/01/10 10:01:44;;;;;;;4.93;3.08;;;-3.00;99.90;;;;;;4993901;28;20135;-71
2024/01/10 10:04:12;;;;;;;1.65;1.27;;;-3.00;99.90;;;;;;4993689;28;20172;-71
2024/01/10 10:06:38;;;;;;;3.03;2.78;;;-3.00;99.90;;;;;;4993218;28;20428;-71
2024/01/10 10:09:04;;;;;;;2.25;1.92;;;-3.00;99.90;;;;;;4976132;28;20285;-71
2024/01/10 10:11:30;;;;;;;2.88;1.55;;;-2.90;99.90;;;;;;4983860;28;20052;-71
2024/01/10 10:13:56;;;;;;;2.22;1.58;;;-2.90;99.90;;;;;;4996308;28;20057;-71
2024/01/10 10:16:28;;;;;;;3.83;2.38;;;-2.90;99.90;;;;;;4991507;28;20440;-72
2024/01/10 10:18:57;;;;;;;2.72;1.85;;;-2.80;99.90;;;;;;4978451;28;20063;-72
2024/01/10 10:21:29;;;;;;;2.05;1.48;;;-2.70;99.90;;;;;;4992442;28;20402;-71
2024/01/10 10:24:05;;;;;;;4.80;1.58;;;-2.60;99.90;;;;;;4977937;28;20042;-71
2024/01/10 10:26:33;;;;;;;1.48;1.38;;;-2.60;99.90;;;;;;4975630;28;20120;-71
2024/01/10 10:28:59;;;;;;;6.78;2.00;;;-2.50;99.90;;;;;;4994181;28;20471;-71
2024/01/10 10:31:25;;;;;;;10.10;2.72;;;-2.50;99.90;;;;;;4976922;28;20166;-72
2024/01/10 10:33:52;;;;;;;3.20;1.38;;;-2.50;99.90;;;;;;4992868;28;20515;-72
2024/01/10 10:36:19;;;;;;;1.20;0.98;;;-2.40;99.90;;;;;;4992909;28;20041;-72
2024/01/10 10:38:47;;;;;;;2.90;2.03;;;-2.40;99.90;;;;;;4996556;28;20125;-73
2024/01/10 10:41:14;;;;;;;1.63;0.88;;;-2.30;99.90;;;;;;4990972;28;20081;-73
2024/01/10 10:43:40;;;;;;;1.77;1.65;;;-2.30;99.90;;;;;;4996836;28;20056;-73
2024/01/10 10:46:12;;;;;;;5.70;2.33;;;-2.20;99.90;;;;;;4995402;28;20394;-72
2024/01/10 10:48:38;;;;;;;3.58;2.75;;;-2.20;99.90;;;;;;4985639;28;20506;-73
2024/01/10 10:51:11;;;;;;;3.83;2.35;;;-2.20;99.90;;;;;;4992721;28;20042;-73
2024/01/10 10:53:38;;;;;;;0.82;0.82;;;-2.20;99.90;;;;;;4976617;28;20037;-72
2024/01/10 10:56:07;;;;;;;1.02;0.88;;;-2.10;99.90;;;;;;4983362;28;20045;-72
2024/01/10 10:58:46;;;;;;;2.15;1.95;;;-2.10;99.90;;;;;;4992136;28;20042;-72
2024/01/10 11:01:14;;;;;;;1.20;1.10;;;-2.10;99.90;;;;;;4992183;28;20543;-73
2024/01/10 11:03:41;;;;;;;2.67;1.38;;;-2.00;99.90;;;;;;4991811;28;20038;-73
2024/01/10 11:06:07;;;;;;;3.85;2.00;;;-2.00;99.90;;;;;;4977297;28;20038;-73
2024/01/10 11:08:37;;;;;;;0.47;0.47;;;-2.00;99.90;;;;;;4991235;28;20421;-73
2024/01/10 11:11:07;;;;;;;5.03;2.53;;;-2.00;99.90;;;;;;4998886;28;20081;-73
2024/01/10 11:13:41;;;;;;;7.25;1.73;;;-1.90;99.90;;;;;;5010725;28;20489;-73
2024/01/10 11:16:27;;;;;;;6.55;2.75;;;-1.90;99.90;;;;;;4985986;28;20668;-73
2024/01/10 11:19:27;;;;;;;2.90;2.38;;;-1.80;99.90;;;;;;4989843;28;20064;-73
2024/01/10 11:22:11;;;;;;;3.08;1.90;;;-1.70;99.90;;;;;;4989290;28;20387;-73
2024/01/10 11:24:37;;;;;;;5.90;2.22;;;-1.70;99.90;;;;;;4990752;28;20338;-73
2024/01/10 11:27:22;;;;;;;4.15;2.58;;;-1.60;99.90;;;;;;4990654;28;20033;-73
2024/01/10 11:29:48;;;;;;;2.25;1.27;;;-1.60;99.90;;;;;;5004233;28;20041;-73
2024/01/10 11:32:15;;;;;;;1.92;1.42;;;-1.50;99.90;;;;;;4993620;28;20085;-74
2024/01/10 11:34:58;;;;;;;4.03;2.65;;;-1.50;99.90;;;;;;4990437;28;20485;-74
2024/01/10 11:37:28;;;;;;;2.15;1.35;;;-1.50;99.90;;;;;;4977482;28;20088;-74
2024/01/10 11:39:53;;;;;;;9.13;2.38;;;-1.40;99.90;;;;;;4994828;28;20033;-74
2024/01/10 11:42:24;;;;;;;3.08;1.75;;;-1.40;99.90;;;;;;4960004;28;20054;-75
2024/01/10 11:44:51;;;;;;;4.25;2.10;;;-1.40;99.90;;;;;;4972926;28;20991;-74
2024/01/10 11:47:20;;;;;;;3.42;2.35;;;-1.40;99.90;;;;;;4973753;28;20042;-75
2024/01/10 11:49:57;;;;;;;3.90;1.80;;;-1.40;99.90;;;;;;4966910;28;20093;-74
2024/01/10 11:52:24;;;;;;;2.40;1.13;;;-1.30;99.90;;;;;;4975676;28;20371;-75
2024/01/10 11:54:50;;;;;;;1.65;1.42;;;-1.30;99.90;;;;;;4945232;28;20097;-74
2024/01/10 11:57:21;;;;;;;2.70;1.73;;;-1.20;99.90;;;;;;4971523;28;20034;-76
2024/01/10 11:59:50;;;;;;;4.97;2.03;;;-1.20;99.90;;;;;;4974788;28;20049;-75
2024/01/10 12:02:17;;;;;;;1.80;1.70;;;-1.10;99.90;;;;;;4954961;28;20046;-75
2024/01/10 12:04:43;;;;;;;3.97;1.63;;;-1.10;99.90;;;;;;4951932;28;20049;-75
2024/01/10 12:07:09;;;;;;;2.80;1.33;;;-1.10;99.90;;;;;;4968347;28;20041;-75
2024/01/10 12:09:38;;;;;;;3.20;2.05;;;-1.00;99.90;;;;;;4961968;28;20042;-75
2024/01/10 12:12:04;;;;;;;3.13;1.77;;;-1.00;99.90;;;;;;4953351;28;20108;-76
2024/01/10 12:14:30;;;;;;;3.97;1.08;;;-0.90;99.90;;;;;;4970976;28;20046;-75
2024/01/10 12:17:00;;;;;;;1.58;0.98;;;-0.90;99.90;;;;;;4969496;28;20735;-75
2024/01/10 12:19:26;;;;;;;1.92;0.93;;;-0.90;99.90;;;;;;4972371;28;20108;-75
2024/01/10 12:21:54;;;;;;;1.48;1.35;;;-0.90;99.90;;;;;;4953844;28;20102;-74
2024/01/10 12:24:21;;;;;;;6.22;1.55;;;-0.80;99.90;;;;;;4972126;28;20061;-75
2024/01/10 12:26:48;;;;;;;3.72;1.98;;;-0.80;99.90;;;;;;4969228;28;20042;-75
2024/01/10 12:29:17;;;;;;;2.83;1.83;;;-0.80;99.90;;;;;;4986622;28;20401;-74
2024/01/10 12:31:45;;;;;;;4.05;2.20;;;-0.70;99.90;;;;;;4957677;28;20113;-76
2024/01/10 12:34:11;;;;;;;2.00;1.13;;;-0.70;99.90;;;;;;4972579;28;20050;-75
2024/01/10 12:36:37;;;;;;;3.20;1.50;;;-0.70;99.90;;;;;;4951451;28;20096;-77
2024/01/10 12:39:06;;;;;;;2.85;1.40;;;-0.60;99.90;;;;;;4971305;28;20713;-77
2024/01/10 12:41:32;;;;;;;2.00;1.02;;;-0.60;99.90;;;;;;4970861;28;20057;-77
2024/01/10 12:44:02;;;;;;;2.58;1.42;;;-0.60;99.90;;;;;;4987987;28;20045;-77